createdAt,value
2022-11-18T00:02:13.405Z,30.25
2022-11-18T00:04:45.532Z,30.88
2022-11-18T00:07:17.701Z,29.17
2022-11-18T00:09:49.729Z,31.80
2022-11-18T00:12:40.340Z,32.95
2022-11-18T00:15:12.248Z,33.00
2022-11-18T00:17:44.255Z,31.55
2022-11-18T00:20:16.224Z,32.15
2022-11-18T00:22:48.153Z,31.38
2022-11-18T00:25:20.039Z,33.63
2022-11-18T00:27:52.020Z,30.85
2022-11-18T00:30:24.979Z,32.75
2022-11-18T00:32:56.818Z,30.88
2022-11-18T00:35:28.681Z,28.50
2022-11-18T00:38:00.550Z,30.65
2022-11-18T00:40:32.441Z,29.05
2022-11-18T00:43:04.411Z,28.52
2022-11-18T00:45:36.317Z,28.92
2022-11-18T00:48:08.220Z,29.77
2022-11-18T00:50:40.067Z,33.70
2022-11-18T00:53:11.912Z,34.38
2022-11-18T00:55:44.171Z,34.75
2022-11-18T00:58:16.482Z,34.40
2022-11-18T01:00:52.098Z,33.05
2022-11-18T01:03:25.634Z,33.35
2022-11-18T01:05:57.579Z,32.80
2022-11-18T01:08:29.449Z,34.97
2022-11-18T01:11:21.603Z,34.08
2022-11-18T01:13:54.442Z,31.15
2022-11-18T01:16:28.197Z,32.75
2022-11-18T01:19:00.129Z,32.67
2022-11-18T01:21:31.964Z,31.00
2022-11-18T01:24:04.099Z,31.05
2022-11-18T01:26:36.355Z,29.55
2022-11-18T01:29:08.760Z,29.00
2022-11-18T01:31:55.537Z,28.50
2022-11-18T01:34:32.615Z,28.33
2022-11-18T01:37:04.523Z,27.02
2022-11-18T01:39:36.500Z,27.35
2022-11-18T01:42:16.797Z,25.77
2022-11-18T01:44:59.864Z,24.27
2022-11-18T01:47:37.550Z,25.25
2022-11-18T01:50:10.564Z,24.20
2022-11-18T01:52:45.259Z,26.00
2022-11-18T01:55:25.842Z,24.98
2022-11-18T01:58:12.471Z,26.17
2022-11-18T02:00:44.509Z,24.48
2022-11-18T02:03:17.771Z,25.65
2022-11-18T02:05:51.528Z,25.80
2022-11-18T02:08:23.732Z,24.35
2022-11-18T02:10:55.723Z,24.92
2022-11-18T02:13:27.661Z,24.02
2022-11-18T02:16:02.521Z,23.45
2022-11-18T02:18:58.568Z,24.23
2022-11-18T02:21:46.436Z,24.80
2022-11-18T02:24:43.339Z,26.60
2022-11-18T02:27:26.861Z,25.73
2022-11-18T02:30:10.168Z,24.85
2022-11-18T02:32:45.017Z,24.77
2022-11-18T02:35:37.348Z,25.02
2022-11-18T02:38:24.878Z,24.50
2022-11-18T02:41:01.856Z,24.80
2022-11-18T02:43:40.970Z,26.23
2022-11-18T02:46:17.691Z,26.10
2022-11-18T02:48:52.419Z,24.90
2022-11-18T02:51:27.730Z,25.35
2022-11-18T02:54:07.233Z,26.42
2022-11-18T02:56:39.253Z,25.73
2022-11-18T02:59:11.058Z,26.70
2022-11-18T03:01:43.162Z,24.98
2022-11-18T03:04:16.903Z,24.17
2022-11-18T03:07:05.821Z,21.67
2022-11-18T03:09:41.542Z,21.73
2022-11-18T03:12:41.339Z,21.77
2022-11-18T03:15:27.978Z,21.27
2022-11-18T03:18:24.961Z,20.95
2022-11-18T03:21:11.665Z,19.45
2022-11-18T03:24:07.798Z,19.10
2022-11-18T03:26:42.787Z,18.60
2022-11-18T03:29:29.603Z,19.35
2022-11-18T03:32:26.376Z,20.48
2022-11-18T03:35:07.076Z,21.88
2022-11-18T03:37:41.249Z,21.63
2022-11-18T03:40:20.198Z,22.58
2022-11-18T03:42:56.905Z,20.58
2022-11-18T03:45:37.485Z,21.30
2022-11-18T03:48:22.536Z,21.40
2022-11-18T03:51:01.466Z,22.42
2022-11-18T03:53:36.349Z,20.75
2022-11-18T03:56:18.222Z,20.23
2022-11-18T03:59:00.623Z,21.17
2022-11-18T04:01:43.343Z,23.20
2022-11-18T04:04:15.699Z,23.48
2022-11-18T04:06:54.656Z,23.58
2022-11-18T04:09:32.021Z,22.63
2022-11-18T04:12:08.504Z,23.50
2022-11-18T04:14:43.208Z,22.90
2022-11-18T04:17:19.799Z,21.55
2022-11-18T04:19:51.721Z,20.50
2022-11-18T04:22:23.666Z,20.35
2022-11-18T04:24:55.486Z,20.60
2022-11-18T04:27:27.312Z,20.70
2022-11-18T04:29:59.199Z,20.55
2022-11-18T04:32:31.221Z,21.27
2022-11-18T04:35:03.333Z,21.50
2022-11-18T04:37:35.269Z,21.27
2022-11-18T04:40:07.894Z,21.13
2022-11-18T04:42:39.908Z,20.25
2022-11-18T04:45:12.349Z,20.63
2022-11-18T04:47:44.290Z,20.45
2022-11-18T04:50:16.418Z,20.30
2022-11-18T04:52:48.312Z,21.15
2022-11-18T04:55:20.564Z,21.30
2022-11-18T04:57:52.444Z,21.25
2022-11-18T05:00:24.324Z,20.45
2022-11-18T05:02:56.224Z,20.20
2022-11-18T05:05:28.056Z,20.25
2022-11-18T05:07:59.988Z,19.88
2022-11-18T05:10:31.772Z,21.05
2022-11-18T05:13:03.718Z,20.80
2022-11-18T05:15:35.615Z,21.00
2022-11-18T05:18:11.174Z,21.73
2022-11-18T05:20:43.165Z,21.50
2022-11-18T05:23:15.036Z,21.75
2022-11-18T05:25:46.927Z,21.27
2022-11-18T05:28:20.556Z,22.52
2022-11-18T05:30:52.510Z,21.35
2022-11-18T05:33:24.702Z,23.17
2022-11-18T05:35:56.589Z,22.85
2022-11-18T05:38:28.507Z,22.77
2022-11-18T05:41:00.563Z,21.95
2022-11-18T05:43:33.288Z,20.08
2022-11-18T05:46:05.304Z,19.90
2022-11-18T05:48:37.163Z,20.58
2022-11-18T05:51:09.040Z,22.20
2022-11-18T05:53:40.954Z,21.77
2022-11-18T05:56:24.893Z,21.00
2022-11-18T05:58:56.918Z,20.75
2022-11-18T06:01:37.507Z,20.80
2022-11-18T06:04:24.126Z,20.08
2022-11-18T06:07:02.379Z,20.45
2022-11-18T06:09:39.704Z,21.30
2022-11-18T06:12:16.441Z,20.60
2022-11-18T06:15:20.374Z,20.05
2022-11-18T06:18:26.248Z,20.13
2022-11-18T06:21:01.321Z,20.60
2022-11-18T06:23:35.933Z,19.92
2022-11-18T06:26:09.470Z,21.58
2022-11-18T06:28:42.033Z,21.23
2022-11-18T06:31:13.919Z,21.48
2022-11-18T06:33:45.764Z,20.50
2022-11-18T06:36:17.642Z,21.20
2022-11-18T06:38:49.504Z,21.98
2022-11-18T06:41:21.370Z,21.85
2022-11-18T06:43:53.234Z,20.50
2022-11-18T06:46:43.487Z,19.95
2022-11-18T06:49:15.474Z,19.52
2022-11-18T06:51:47.508Z,20.25
2022-11-18T06:54:19.973Z,19.95
2022-11-18T06:56:51.903Z,19.75
2022-11-18T06:59:24.523Z,20.27
2022-11-18T07:01:57.097Z,20.88
2022-11-18T07:04:28.953Z,21.95
2022-11-18T07:07:00.999Z,23.63
2022-11-18T07:09:34.148Z,23.17
2022-11-18T07:12:06.298Z,20.73
2022-11-18T07:14:38.215Z,20.80
2022-11-18T07:17:10.038Z,20.15
2022-11-18T07:19:41.940Z,20.95
2022-11-18T07:22:14.385Z,18.95
2022-11-18T07:24:46.247Z,20.80
2022-11-18T07:27:18.059Z,21.05
2022-11-18T07:29:49.953Z,20.92
2022-11-18T07:32:21.872Z,20.38
2022-11-18T07:34:53.712Z,20.65
2022-11-18T07:37:25.678Z,20.52
2022-11-18T07:39:59.807Z,20.67
2022-11-18T07:42:42.553Z,24.33
2022-11-18T07:45:27.416Z,25.92
2022-11-18T07:47:59.266Z,24.20
2022-11-18T07:50:31.167Z,24.27
2022-11-18T07:53:03.048Z,26.08
2022-11-18T07:55:34.948Z,25.17
2022-11-18T07:58:06.818Z,26.75
2022-11-18T08:00:38.720Z,28.02
2022-11-18T08:03:14.436Z,28.25
2022-11-18T08:05:46.673Z,28.77
2022-11-18T08:08:18.532Z,30.17
2022-11-18T08:10:50.397Z,31.48
2022-11-18T08:13:22.277Z,29.52
2022-11-18T08:15:55.158Z,30.48
2022-11-18T08:18:29.134Z,31.35
2022-11-18T08:21:04.962Z,33.85
2022-11-18T08:23:41.943Z,31.33
2022-11-18T08:26:15.402Z,33.20
2022-11-18T08:28:47.999Z,34.28
2022-11-18T08:31:25.818Z,37.70
2022-11-18T08:34:06.826Z,37.30
2022-11-18T08:36:39.432Z,38.03
2022-11-18T08:39:11.996Z,37.58
2022-11-18T08:41:46.816Z,38.70
2022-11-18T08:44:18.850Z,35.50
2022-11-18T08:46:50.913Z,37.15
2022-11-18T08:49:25.111Z,36.22
2022-11-18T08:52:00.225Z,36.95
2022-11-18T08:54:32.064Z,39.08
2022-11-18T08:57:04.018Z,36.28
2022-11-18T08:59:35.913Z,39.63
2022-11-18T09:02:19.018Z,39.08
2022-11-18T09:04:51.876Z,38.53
2022-11-18T09:07:23.886Z,34.65
2022-11-18T09:09:55.999Z,32.92
2022-11-18T09:12:28.073Z,30.98
2022-11-18T09:15:13.305Z,28.23
2022-11-18T09:17:46.013Z,26.35
2022-11-18T09:20:18.104Z,25.80
2022-11-18T09:22:49.976Z,25.65
2022-11-18T09:25:21.965Z,24.00
2022-11-18T09:27:55.492Z,22.33
2022-11-18T09:30:27.657Z,21.45
2022-11-18T09:32:59.630Z,21.42
2022-11-18T09:35:32.187Z,21.42
2022-11-18T09:38:04.105Z,20.90
2022-11-18T09:40:53.003Z,21.40
2022-11-18T09:43:43.655Z,19.63
2022-11-18T09:46:24.604Z,21.97
2022-11-18T09:49:14.006Z,23.23
2022-11-18T09:51:48.789Z,23.80
2022-11-18T09:54:26.745Z,23.45
2022-11-18T09:56:58.743Z,23.98
2022-11-18T09:59:33.857Z,23.17
2022-11-18T10:02:34.845Z,22.73
2022-11-18T10:05:20.360Z,24.50
2022-11-18T10:08:07.182Z,24.55
2022-11-18T10:11:07.931Z,25.38
2022-11-18T10:13:45.714Z,28.17
2022-11-18T10:16:36.264Z,29.52
2022-11-18T10:19:29.730Z,33.15
2022-11-18T10:22:34.218Z,32.65
2022-11-18T10:25:13.477Z,33.03
2022-11-18T10:27:47.804Z,36.72
2022-11-18T10:30:22.880Z,35.70
2022-11-18T10:33:00.305Z,36.70
2022-11-18T10:35:38.051Z,34.47
2022-11-18T10:38:15.789Z,30.17
2022-11-18T10:40:50.344Z,30.48
2022-11-18T10:43:45.887Z,28.45
2022-11-18T10:46:25.964Z,28.52
2022-11-18T10:49:17.312Z,28.25
2022-11-18T10:54:36.134Z,26.48
2022-11-18T10:57:35.246Z,26.88
2022-11-18T11:00:34.440Z,26.55
2022-11-18T11:03:37.798Z,26.55
2022-11-18T11:06:21.468Z,26.55
2022-11-18T11:08:57.778Z,30.45
2022-11-18T11:11:34.921Z,30.23
2022-11-18T11:14:15.369Z,31.70
2022-11-18T11:17:01.040Z,31.40
2022-11-18T11:19:49.145Z,32.45
2022-11-18T11:22:21.256Z,33.40
2022-11-18T11:24:53.189Z,32.40
2022-11-18T11:30:26.145Z,33.60
2022-11-18T11:33:03.416Z,32.78
2022-11-18T11:35:46.938Z,32.47
2022-11-18T11:38:59.916Z,30.83
2022-11-18T11:42:08.963Z,31.38
2022-11-18T11:44:49.696Z,31.58
2022-11-18T11:47:49.999Z,29.75
2022-11-18T11:50:31.285Z,30.50
2022-11-18T11:55:53.558Z,31.05
2022-11-18T11:58:50.724Z,30.77
2022-11-18T12:01:57.021Z,29.85
2022-11-18T12:04:47.812Z,30.48
2022-11-18T12:07:24.864Z,29.90
2022-11-18T12:10:17.288Z,29.10
2022-11-18T12:13:22.145Z,30.13
2022-11-18T12:16:24.758Z,29.55
2022-11-18T12:19:13.112Z,28.92
2022-11-18T12:21:45.573Z,29.75
2022-11-18T12:24:17.426Z,30.13
2022-11-18T12:26:51.005Z,30.30
2022-11-18T12:29:25.740Z,28.88
2022-11-18T12:31:59.761Z,30.00
2022-11-18T12:34:38.720Z,30.50
2022-11-18T12:37:26.146Z,27.48
2022-11-18T12:40:00.971Z,27.90
2022-11-18T12:43:05.485Z,26.83
2022-11-18T12:45:52.892Z,28.23
2022-11-18T12:48:38.746Z,26.70
2022-11-18T12:51:16.647Z,26.27
2022-11-18T12:53:50.426Z,26.48
2022-11-18T12:56:23.297Z,26.88
2022-11-18T12:58:57.543Z,27.58
2022-11-18T13:01:34.491Z,26.67
2022-11-18T13:04:16.612Z,25.33
2022-11-18T13:06:49.082Z,25.50
2022-11-18T13:09:24.735Z,26.27
2022-11-18T13:12:01.452Z,24.60
2022-11-18T13:14:59.508Z,23.30
2022-11-18T13:17:51.520Z,22.75
2022-11-18T13:20:36.563Z,22.58
2022-11-18T13:23:30.014Z,23.45
2022-11-18T13:26:26.379Z,22.27
2022-11-18T13:29:20.482Z,21.58
2022-11-18T13:32:08.364Z,21.70
2022-11-18T13:34:48.054Z,22.92
2022-11-18T13:37:25.807Z,22.30
2022-11-18T13:39:58.077Z,21.95
2022-11-18T13:42:31.493Z,22.08
2022-11-18T13:45:04.463Z,21.35
2022-11-18T13:47:48.664Z,22.80
2022-11-18T13:50:25.975Z,22.25
2022-11-18T13:53:03.734Z,23.45
2022-11-18T13:55:44.016Z,23.77
2022-11-18T13:58:18.909Z,24.33
2022-11-18T14:01:03.910Z,24.25
2022-11-18T14:03:53.325Z,24.83
2022-11-18T14:06:38.828Z,24.95
2022-11-18T14:09:29.961Z,25.55
2022-11-18T14:12:25.114Z,25.52
2022-11-18T14:15:21.233Z,25.27
2022-11-18T14:17:57.819Z,25.88
2022-11-18T14:20:31.149Z,27.50
2022-11-18T14:23:05.648Z,28.05
2022-11-18T14:25:37.649Z,28.80
2022-11-18T14:28:18.808Z,27.52
2022-11-18T14:31:03.870Z,28.38
2022-11-18T14:33:36.927Z,30.35
2022-11-18T14:36:14.554Z,29.27
2022-11-18T14:39:25.572Z,30.38
2022-11-18T14:41:46.929Z,30.17
2022-11-18T14:44:20.612Z,30.00
2022-11-18T14:46:58.347Z,30.38
2022-11-18T14:49:31.552Z,30.13
2022-11-18T14:52:04.634Z,31.10
2022-11-18T14:54:36.586Z,30.83
2022-11-18T14:57:17.196Z,30.27
2022-11-18T14:59:49.171Z,30.52
2022-11-18T15:02:21.816Z,32.58
2022-11-18T15:04:53.698Z,33.17
2022-11-18T15:07:25.668Z,31.48
2022-11-18T15:09:57.623Z,30.58
2022-11-18T15:12:29.691Z,30.25
2022-11-18T15:15:01.750Z,31.70
2022-11-18T15:17:35.791Z,32.30
2022-11-18T15:20:14.914Z,32.20
2022-11-18T15:22:46.857Z,32.50
2022-11-18T15:25:18.852Z,33.92
2022-11-18T15:27:50.956Z,36.00
2022-11-18T15:30:24.093Z,78.07
2022-11-18T15:32:56.049Z,33.55
2022-11-18T15:35:28.240Z,33.53
2022-11-18T15:38:00.253Z,34.83
2022-11-18T15:40:32.457Z,35.55
2022-11-18T15:43:04.970Z,37.22
2022-11-18T15:45:36.917Z,36.25
2022-11-18T15:48:09.030Z,36.97
2022-11-18T15:50:40.992Z,35.15
2022-11-18T15:53:12.873Z,34.30
2022-11-18T15:55:44.836Z,34.97
2022-11-18T15:58:17.289Z,36.97
2022-11-18T16:00:49.373Z,36.75
2022-11-18T16:03:21.270Z,37.67
2022-11-18T16:05:53.194Z,39.53
2022-11-18T16:08:25.128Z,39.95
2022-11-18T16:11:15.897Z,38.55
2022-11-18T16:13:48.139Z,37.97
2022-11-18T16:16:28.136Z,38.47
2022-11-18T16:19:02.680Z,39.97
2022-11-18T16:21:37.191Z,40.30
2022-11-18T16:24:12.400Z,53.60
2022-11-18T16:26:44.506Z,45.15
2022-11-18T16:29:17.706Z,40.33
2022-11-18T16:31:52.268Z,40.63
2022-11-18T16:34:27.164Z,44.90
2022-11-18T16:37:02.438Z,41.38
2022-11-18T16:39:34.345Z,36.72
2022-11-18T16:42:08.978Z,35.50
2022-11-18T16:44:41.850Z,35.78
2022-11-18T16:47:15.208Z,38.70
2022-11-18T16:49:47.306Z,40.58
2022-11-18T16:52:19.132Z,42.33
2022-11-18T16:54:52.379Z,44.20
2022-11-18T16:57:25.369Z,42.58
2022-11-18T16:59:57.559Z,41.67
2022-11-18T17:02:29.527Z,41.38
2022-11-18T17:05:01.422Z,39.72
2022-11-18T17:07:38.368Z,45.60
2022-11-18T17:10:19.952Z,40.72
2022-11-18T17:12:52.102Z,38.03
2022-11-18T17:15:23.980Z,37.40
2022-11-18T17:17:55.866Z,37.58
2022-11-18T17:20:27.890Z,37.05
2022-11-18T17:22:59.752Z,35.05
2022-11-18T17:25:33.992Z,36.63
2022-11-18T17:28:06.089Z,38.22
2022-11-18T17:30:37.997Z,37.72
2022-11-18T17:33:10.108Z,35.08
2022-11-18T17:35:41.974Z,34.92
2022-11-18T17:38:14.361Z,38.88
2022-11-18T17:40:46.196Z,32.60
2022-11-18T17:43:18.535Z,30.35
2022-11-18T17:45:52.290Z,28.30
2022-11-18T17:48:26.463Z,25.70
2022-11-18T17:51:06.102Z,25.85
2022-11-18T17:53:42.640Z,26.23
2022-11-18T17:56:15.489Z,23.65
2022-11-18T17:58:49.423Z,23.13
2022-11-18T18:01:22.685Z,24.10
2022-11-18T18:03:54.679Z,29.27
2022-11-18T18:06:27.017Z,26.65
2022-11-18T18:08:59.166Z,23.13
2022-11-18T18:11:31.212Z,20.83
2022-11-18T18:14:15.527Z,20.20
2022-11-18T18:16:50.432Z,20.25
2022-11-18T18:19:23.628Z,19.42
2022-11-18T18:21:55.523Z,18.52
2022-11-18T18:24:27.834Z,15.57
2022-11-18T18:27:00.607Z,13.27
2022-11-18T18:29:32.524Z,12.13
2022-11-18T18:32:04.846Z,10.98
2022-11-18T18:34:36.720Z,11.35
2022-11-18T18:37:08.606Z,10.55
2022-11-18T18:39:40.482Z,10.23
2022-11-18T18:42:12.420Z,9.23
2022-11-18T18:45:02.759Z,9.70
2022-11-18T18:47:35.861Z,8.80
2022-11-18T18:50:07.860Z,8.55
2022-11-18T18:52:39.765Z,8.63
2022-11-18T18:55:11.699Z,9.40
2022-11-18T18:57:43.625Z,6.85
2022-11-18T19:00:15.788Z,7.60
2022-11-18T19:02:47.695Z,9.30
2022-11-18T19:05:29.211Z,8.07
2022-11-18T19:08:11.038Z,7.57
2022-11-18T19:10:43.106Z,7.20
2022-11-18T19:13:15.113Z,6.97
2022-11-18T19:15:47.059Z,8.48
2022-11-18T19:18:19.229Z,8.23
2022-11-18T19:20:51.332Z,9.88
2022-11-18T19:23:23.260Z,8.90
2022-11-18T19:26:01.569Z,10.48
2022-11-18T19:28:33.506Z,9.43
2022-11-18T19:31:05.679Z,7.95
2022-11-18T19:33:37.936Z,8.02
2022-11-18T19:36:10.961Z,8.90
2022-11-18T19:38:42.869Z,8.63
2022-11-18T19:41:15.394Z,8.95
2022-11-18T19:43:47.312Z,8.73
2022-11-18T19:46:19.249Z,8.73
2022-11-18T19:48:51.922Z,11.68
2022-11-18T19:51:24.483Z,10.52
2022-11-18T19:53:59.710Z,11.98
2022-11-18T19:56:31.800Z,10.68
2022-11-18T19:59:03.808Z,11.88
2022-11-18T20:01:35.742Z,8.05
2022-11-18T20:04:07.709Z,8.35
2022-11-18T20:06:40.452Z,8.73
2022-11-18T20:09:13.056Z,7.05
2022-11-18T20:11:45.210Z,7.90
2022-11-18T20:14:17.428Z,8.38
2022-11-18T20:16:51.598Z,9.55
2022-11-18T20:19:23.893Z,11.05
2022-11-18T20:21:55.894Z,11.50
2022-11-18T20:24:27.779Z,8.68
2022-11-18T20:26:59.702Z,7.57
2022-11-18T20:29:31.624Z,7.50
2022-11-18T20:32:03.580Z,7.93
2022-11-18T20:34:35.556Z,8.38
2022-11-18T20:37:07.683Z,8.75
2022-11-18T20:39:39.627Z,8.50
2022-11-18T20:42:30.278Z,7.85
2022-11-18T20:45:02.405Z,7.57
2022-11-18T20:47:34.351Z,7.32
2022-11-18T20:50:06.752Z,7.68
2022-11-18T20:52:39.518Z,7.22
2022-11-18T20:55:11.507Z,7.25
2022-11-18T20:57:43.380Z,6.85
2022-11-18T21:00:15.789Z,6.38
2022-11-18T21:02:47.744Z,6.50
2022-11-18T21:05:19.745Z,6.30
2022-11-18T21:07:53.455Z,6.78
2022-11-18T21:10:25.730Z,7.38
2022-11-18T21:13:16.314Z,9.27
2022-11-18T21:15:48.380Z,9.65
2022-11-18T21:18:20.429Z,9.82
2022-11-18T21:21:15.989Z,7.80
2022-11-18T21:23:47.929Z,7.65
2022-11-18T21:26:19.989Z,5.55
2022-11-18T21:28:55.944Z,6.50
2022-11-18T21:31:29.041Z,5.40
2022-11-18T21:34:01.380Z,5.10
2022-11-18T21:36:33.700Z,5.50
2022-11-18T21:39:06.130Z,5.70
2022-11-18T21:41:38.670Z,6.65
2022-11-18T21:44:12.586Z,6.45
2022-11-18T21:46:44.544Z,6.60
2022-11-18T21:49:17.136Z,6.63
2022-11-18T21:51:49.368Z,6.78
2022-11-18T21:54:21.267Z,7.03
2022-11-18T21:56:53.795Z,6.95
2022-11-18T21:59:25.754Z,6.50
2022-11-18T22:01:57.770Z,6.93
2022-11-18T22:04:48.539Z,6.93
2022-11-18T22:07:24.886Z,7.80
2022-11-18T22:09:56.961Z,7.70
2022-11-18T22:12:28.884Z,8.85
2022-11-18T22:15:00.853Z,8.20
2022-11-18T22:17:32.705Z,8.10
2022-11-18T22:20:05.145Z,7.57
2022-11-18T22:22:36.999Z,7.53
2022-11-18T22:25:09.217Z,8.68
2022-11-18T22:27:41.049Z,7.90
2022-11-18T22:30:13.012Z,8.50
2022-11-18T22:32:44.977Z,8.50
2022-11-18T22:35:16.901Z,9.38
2022-11-18T22:37:48.756Z,8.85
2022-11-18T22:40:20.616Z,8.55
2022-11-18T22:42:52.566Z,8.50
2022-11-18T22:45:24.596Z,8.57
2022-11-18T22:47:56.442Z,8.48
2022-11-18T22:50:28.323Z,7.82
2022-11-18T22:53:00.165Z,7.88
2022-11-18T22:55:32.013Z,7.88
2022-11-18T22:58:03.961Z,7.50
2022-11-18T23:00:35.874Z,7.88
2022-11-18T23:03:08.437Z,8.13
2022-11-18T23:05:40.363Z,8.57
2022-11-18T23:08:12.321Z,8.52
2022-11-18T23:10:44.310Z,8.10
2022-11-18T23:13:35.134Z,7.57
2022-11-18T23:16:07.274Z,6.93
2022-11-18T23:18:39.261Z,5.95
2022-11-18T23:21:11.237Z,6.38
2022-11-18T23:23:44.402Z,5.55
2022-11-18T23:26:17.242Z,5.35
2022-11-18T23:28:49.508Z,4.97
2022-11-18T23:31:26.407Z,4.90
2022-11-18T23:33:58.610Z,5.43
2022-11-18T23:36:30.513Z,5.95
2022-11-18T23:39:02.397Z,6.78
2022-11-18T23:41:34.568Z,6.03
2022-11-18T23:44:07.045Z,6.03
2022-11-18T23:46:38.941Z,5.43
2022-11-18T23:49:10.896Z,5.53
2022-11-18T23:51:42.757Z,5.15
2022-11-18T23:54:14.711Z,5.20
2022-11-18T23:56:46.594Z,5.50
2022-11-18T23:59:18.756Z,4.22
